Time;durP1;ratioP1;P1;durP2;ratioP2;P2;SDS_P1;SDS_P2;PMS_P1;PMS_P2;Temp;Humidity;BMP_temperature;BMP_pressure;BME280_temperature;BME280_humidity;BME280_pressure;Samples;Min_cycle;Max_cycle;Signal;HPM_P1;HPM_P2
2022/04/20 00:02:07;;;;;;;2.58;0.80;;;;;;;26.78;26.54;96231.84;4874397;28;20161;-31
2022/04/20 00:04:33;;;;;;;2.05;0.95;;;;;;;26.78;26.36;96237.09;4880545;28;20032;-33
2022/04/20 00:06:59;;;;;;;2.22;0.77;;;;;;;26.76;26.54;96239.84;4880189;28;21345;-30
2022/04/20 00:09:24;;;;;;;1.30;0.60;;;;;;;26.78;26.43;96237.97;4881017;28;20042;-32
2022/04/20 00:11:49;;;;;;;2.20;0.90;;;;;;;26.78;26.47;96237.97;4879367;28;20036;-33
2022/04/20 00:14:15;;;;;;;1.50;0.90;;;;;;;26.78;26.52;96237.09;4879160;28;20939;-32
2022/04/20 00:16:40;;;;;;;2.45;0.73;;;;;;;26.77;26.41;96225.72;4882141;28;20111;-33
2022/04/20 00:19:06;;;;;;;3.13;0.73;;;;;;;26.77;26.42;96220.47;4879000;28;20632;-38
2022/04/20 00:21:31;;;;;;;2.50;1.00;;;;;;;26.77;26.57;96220.47;4880841;28;20052;-29
2022/04/20 00:23:56;;;;;;;1.75;0.80;;;;;;;26.77;26.57;96220.47;4873069;28;20043;-32
2022/04/20 00:26:22;;;;;;;1.98;0.90;;;;;;;26.77;26.57;96220.47;4880347;28;20044;-35
2022/04/20 00:28:47;;;;;;;1.52;0.90;;;;;;;26.76;26.50;96218.81;4884488;28;20118;-34
2022/04/20 00:31:13;;;;;;;1.70;0.80;;;;;;;26.77;26.33;96214.41;4882268;28;20998;-34
2022/04/20 00:33:38;;;;;;;1.27;0.70;;;;;;;26.77;26.26;96217.03;4874084;28;20107;-32
2022/04/20 00:36:04;;;;;;;2.15;0.90;;;;;;;26.77;26.48;96225.72;4873857;28;20101;-33
2022/04/20 00:38:29;;;;;;;1.52;0.80;;;;;;;26.77;26.49;96225.72;4879009;28;20059;-36
2022/04/20 00:40:55;;;;;;;1.67;0.57;;;;;;;26.77;26.49;96225.72;4887709;28;20042;-35
2022/04/20 00:43:20;;;;;;;2.45;0.75;;;;;;;26.76;26.59;96229.31;4883141;28;20110;-32
2022/04/20 00:45:46;;;;;;;3.40;0.70;;;;;;;26.76;26.21;96226.69;4890814;28;20745;-36
2022/04/20 00:48:11;;;;;;;1.58;0.80;;;;;;;26.76;26.52;96216.16;4911774;28;20778;-37
2022/04/20 00:50:40;;;;;;;1.85;0.85;;;;;;;26.76;26.48;96215.34;4929534;28;20110;-32
2022/04/20 00:53:05;;;;;;;1.15;0.60;;;;;;;26.76;26.52;96218.81;4945940;28;20031;-34
2022/04/20 00:55:31;;;;;;;2.65;0.93;;;;;;;26.76;26.47;96218.81;4927718;28;20261;-32
2022/04/20 00:57:56;;;;;;;1.60;0.85;;;;;;;26.75;26.56;96219.75;4928564;28;20039;-32
2022/04/20 01:00:22;;;;;;;2.33;0.90;;;;;;;26.75;26.41;96217.13;4931260;28;20027;-29
2022/04/20 01:02:47;;;;;;;1.85;0.65;;;;;;;26.75;26.41;96217.13;4929263;28;20591;-34
2022/04/20 01:05:13;;;;;;;1.98;0.80;;;;;;;26.75;26.41;96217.13;4922773;28;20043;-35
2022/04/20 01:07:40;;;;;;;1.45;0.88;;;;;;;26.75;26.41;96217.13;4926067;28;20131;-31
2022/04/20 01:10:06;;;;;;;1.23;0.68;;;;;;;26.75;26.45;96211.88;4927893;28;20083;-34
2022/04/20 01:12:31;;;;;;;0.90;0.57;;;;;;;26.75;26.45;96211.88;4917516;28;20699;-32
2022/04/20 01:14:56;;;;;;;1.50;0.70;;;;;;;26.76;26.67;96217.97;4922295;28;20047;-30
2022/04/20 01:17:22;;;;;;;0.80;0.50;;;;;;;26.74;26.18;96220.69;4916214;28;20035;-31
2022/04/20 01:19:47;;;;;;;0.95;0.60;;;;;;;26.74;26.18;96220.69;4916275;28;20042;-32
2022/04/20 01:22:13;;;;;;;1.02;0.60;;;;;;;26.73;26.45;96214.59;4919787;28;20035;-30
2022/04/20 01:24:39;;;;;;;3.05;0.73;;;;;;;26.74;26.36;96210.19;4919564;28;20035;-32
2022/04/20 01:27:05;;;;;;;0.80;0.60;;;;;;;26.74;26.50;96207.56;4918596;28;20039;-30
2022/04/20 01:29:31;;;;;;;1.13;0.70;;;;;;;26.73;26.56;96214.59;4918850;28;20023;-32
2022/04/20 01:31:56;;;;;;;5.40;1.10;;;;;;;26.72;26.53;96212.91;4919875;28;20055;-30
2022/04/20 01:34:22;;;;;;;1.52;0.60;;;;;;;26.73;26.25;96216.38;4916757;28;20043;-34
2022/04/20 01:36:47;;;;;;;0.50;0.50;;;;;;;26.73;26.49;96213.75;4920904;28;20483;-35
2022/04/20 01:39:13;;;;;;;1.15;0.50;;;;;;;26.73;26.73;96219.00;4917079;28;20027;-33
2022/04/20 01:41:38;;;;;;;0.85;0.57;;;;;;;26.73;26.73;96219.00;4919231;28;20027;-32
2022/04/20 01:44:04;;;;;;;1.27;0.73;;;;;;;26.73;26.52;96229.50;4918500;28;21030;-32
2022/04/20 01:46:29;;;;;;;1.60;0.40;;;;;;;26.72;26.49;96227.84;4916007;28;20067;-37
2022/04/20 01:48:55;;;;;;;2.65;0.80;;;;;;;26.73;26.44;96226.88;4916777;28;20034;-30
2022/04/20 01:54:04;;;;;;;3.25;0.77;;;;;;;26.73;26.63;96224.25;4919429;28;20107;-31
2022/04/20 01:56:29;;;;;;;1.73;0.85;;;;;;;26.73;26.50;96224.25;4918714;28;20032;-32
2022/04/20 01:58:55;;;;;;;1.13;0.65;;;;;;;26.72;26.64;96227.84;4913121;28;20039;-35
2022/04/20 02:04:05;;;;;;;1.45;0.70;;;;;;;26.72;26.57;96228.69;4917033;28;20501;-32
2022/04/20 02:06:31;;;;;;;1.17;0.57;;;;;;;26.73;26.59;96219.00;4921103;28;20051;-32
2022/04/20 02:08:56;;;;;;;1.02;0.60;;;;;;;26.72;26.60;96228.69;4918926;28;20618;-30
2022/04/20 02:11:22;;;;;;;1.65;0.60;;;;;;;26.73;26.69;96232.13;4917638;28;20083;-32
2022/04/20 02:13:47;;;;;;;0.88;0.50;;;;;;;26.72;26.62;96228.69;4917844;28;20035;-32
2022/04/20 02:16:13;;;;;;;1.88;0.90;;;;;;;26.72;26.62;96228.69;4921745;28;20030;-33
2022/04/20 02:18:38;;;;;;;2.58;0.50;;;;;;;26.69;26.75;96209.66;4915471;28;20447;-33
2022/04/20 02:21:04;;;;;;;0.98;0.50;;;;;;;26.73;26.67;96213.75;4917681;28;20031;-33
2022/04/20 02:23:29;;;;;;;1.65;0.73;;;;;;;26.73;26.67;96213.75;4916751;28;20046;-31
2022/04/20 02:25:54;;;;;;;0.82;0.50;;;;;;;26.72;26.48;96215.53;4915424;28;20208;-34
2022/04/20 02:28:20;;;;;;;0.40;0.40;;;;;;;26.72;26.48;96215.53;4918625;28;20043;-31
2022/04/20 02:30:45;;;;;;;1.40;0.50;;;;;;;26.72;26.44;96209.44;4921486;28;20032;-33
2022/04/20 02:33:10;;;;;;;3.55;0.68;;;;;;;26.72;26.50;96212.91;4919203;28;20098;-35
2022/04/20 02:35:36;;;;;;;1.83;0.68;;;;;;;26.72;26.50;96212.91;4918043;28;20043;-33
2022/04/20 02:38:02;;;;;;;0.77;0.55;;;;;;;26.72;26.50;96212.91;4917414;28;20714;-34
2022/04/20 02:40:27;;;;;;;0.60;0.40;;;;;;;26.72;26.50;96212.91;4920399;28;20039;-31
2022/04/20 02:42:52;;;;;;;1.00;0.60;;;;;;;26.71;26.34;96221.75;4920304;28;20953;-33
2022/04/20 02:45:19;;;;;;;1.70;0.40;;;;;;;26.71;26.76;96223.53;4917435;28;20032;-31
2022/04/20 02:47:44;;;;;;;0.90;0.47;;;;;;;26.71;26.76;96223.53;4913783;28;20832;-31
2022/04/20 02:50:10;;;;;;;0.82;0.50;;;;;;;26.71;26.76;96223.53;4918787;28;20035;-34
2022/04/20 02:52:35;;;;;;;1.17;0.50;;;;;;;26.71;26.76;96223.53;4920338;28;20111;-33
2022/04/20 02:55:01;;;;;;;0.98;0.60;;;;;;;26.70;26.62;96220.03;4916829;28;20034;-31
2022/04/20 02:57:26;;;;;;;2.22;0.85;;;;;;;26.70;26.62;96220.03;4919907;28;20042;-31
2022/04/20 02:59:52;;;;;;;0.77;0.50;;;;;;;26.71;26.54;96215.63;4917486;28;20042;-38
2022/04/20 03:02:17;;;;;;;1.00;0.43;;;;;;;26.71;26.54;96215.63;4920339;28;20047;-37
2022/04/20 03:04:43;;;;;;;1.02;0.60;;;;;;;26.70;26.71;96208.72;4915482;28;20043;-34
2022/04/20 03:07:08;;;;;;;1.73;0.75;;;;;;;26.70;26.71;96208.72;4920149;28;20040;-31
2022/04/20 03:09:33;;;;;;;3.42;0.75;;;;;;;26.70;26.71;96208.72;4917750;28;20039;-33
2022/04/20 03:11:59;;;;;;;0.70;0.50;;;;;;;26.67;26.64;96209.75;4915303;28;20039;-33
2022/04/20 03:14:24;;;;;;;1.50;0.60;;;;;;;26.67;26.64;96209.75;4926587;28;20031;-31
2022/04/20 03:16:49;;;;;;;1.42;0.60;;;;;;;26.71;26.53;96210.38;4914980;28;20581;-32
2022/04/20 03:19:15;;;;;;;6.05;1.02;;;;;;;26.71;26.53;96210.38;4917657;28;20042;-31
2022/04/20 03:21:40;;;;;;;2.47;0.70;;;;;;;26.71;26.55;96215.63;4919107;28;20036;-32
2022/04/20 03:24:06;;;;;;;1.17;0.60;;;;;;;26.71;26.55;96215.63;4927107;28;20038;-31
2022/04/20 03:26:31;;;;;;;2.70;0.93;;;;;;;26.71;26.70;96227.00;4928896;28;20551;-33
2022/04/20 03:28:56;;;;;;;2.35;0.75;;;;;;;26.71;26.70;96227.00;4926376;28;20023;-31
2022/04/20 03:31:22;;;;;;;4.13;0.70;;;;;;;26.71;26.70;96227.00;4926237;28;20086;-31
2022/04/20 03:33:47;;;;;;;2.80;0.63;;;;;;;26.71;26.69;96236.66;4936604;28;21444;-31
2022/04/20 03:36:13;;;;;;;0.88;0.60;;;;;;;26.70;26.69;96232.38;4926866;28;20493;-30
2022/04/20 03:38:38;;;;;;;2.15;0.88;;;;;;;26.70;26.69;96232.38;4918527;28;20039;-31
2022/04/20 03:41:04;;;;;;;2.05;0.63;;;;;;;26.70;26.69;96232.38;4922746;28;20047;-31
2022/04/20 03:43:30;;;;;;;2.45;0.77;;;;;;;26.70;26.69;96232.38;4921251;28;20058;-30
2022/04/20 03:45:55;;;;;;;0.70;0.57;;;;;;;26.70;26.69;96232.38;4920808;28;20430;-32
2022/04/20 03:48:22;;;;;;;2.65;0.80;;;;;;;26.70;26.69;96232.38;4918541;28;20044;-31
2022/04/20 03:50:48;;;;;;;1.30;0.60;;;;;;;26.70;26.69;96232.38;4918985;28;20051;-30
2022/04/20 03:53:13;;;;;;;3.58;0.77;;;;;;;26.70;26.69;96232.38;4919342;28;20388;-35
2022/04/20 03:55:38;;;;;;;3.72;0.68;;;;;;;26.69;26.67;96230.69;4925282;28;20042;-30
2022/04/20 03:58:04;;;;;;;2.22;0.70;;;;;;;26.69;26.67;96230.69;4921657;28;20031;-29
2022/04/20 04:00:31;;;;;;;2.33;0.60;;;;;;;26.69;26.75;96222.81;4919486;28;20035;-31
2022/04/20 04:02:56;;;;;;;6.57;0.80;;;;;;;26.70;26.79;96229.72;4921361;28;20063;-32
2022/04/20 04:05:22;;;;;;;2.63;0.77;;;;;;;26.70;26.79;96229.72;4923055;28;20034;-32
2022/04/20 04:07:47;;;;;;;1.05;0.50;;;;;;;26.70;27.02;96229.72;4921405;28;20031;-31
2022/04/20 04:10:13;;;;;;;1.38;0.70;;;;;;;26.70;26.73;96224.47;4925789;28;20031;-33
2022/04/20 04:12:38;;;;;;;1.80;0.50;;;;;;;26.69;26.83;96228.06;4921323;28;20031;-30
2022/04/20 04:15:05;;;;;;;1.13;0.55;;;;;;;26.70;26.76;96229.72;4920500;28;20024;-31
2022/04/20 04:17:31;;;;;;;1.65;0.70;;;;;;;26.68;26.66;96221.94;4920766;28;20035;-31
2022/04/20 04:19:57;;;;;;;2.63;0.80;;;;;;;26.68;26.65;96223.72;4920288;28;20044;-34
2022/04/20 04:22:22;;;;;;;1.08;0.70;;;;;;;26.68;26.78;96232.47;4928325;28;20163;-33
2022/04/20 04:24:48;;;;;;;2.97;0.90;;;;;;;26.68;26.78;96232.47;4931857;28;20031;-30
2022/04/20 04:27:13;;;;;;;3.03;0.60;;;;;;;26.68;26.72;96221.09;4929016;28;20028;-32
2022/04/20 04:29:39;;;;;;;3.10;0.85;;;;;;;26.68;26.72;96221.09;4924269;28;20027;-29
2022/04/20 04:32:05;;;;;;;0.95;0.60;;;;;;;26.67;26.75;96230.78;4921081;28;20024;-29
2022/04/20 04:34:30;;;;;;;2.92;0.93;;;;;;;26.68;26.82;96229.81;4928072;28;20672;-32
2022/04/20 04:36:56;;;;;;;1.17;0.65;;;;;;;26.68;26.82;96229.81;4932610;28;20027;-30
2022/04/20 04:39:22;;;;;;;1.30;0.60;;;;;;;26.68;26.82;96229.81;4927608;28;20032;-37
2022/04/20 04:41:50;;;;;;;1.17;0.68;;;;;;;26.68;26.82;96229.81;4943730;28;20708;-28
2022/04/20 04:44:19;;;;;;;2.58;0.70;;;;;;;26.67;26.68;96229.94;4926683;28;20437;-30
2022/04/20 04:49:28;;;;;;;1.45;0.70;;;;;;;26.67;26.86;96224.66;4926981;28;20062;-33
2022/04/20 04:51:55;;;;;;;5.80;0.57;;;;;;;26.65;26.78;96229.19;4928889;28;20031;-32
2022/04/20 04:54:21;;;;;;;2.25;0.70;;;;;;;26.66;26.87;96228.25;4942908;28;20972;-38
2022/04/20 04:56:46;;;;;;;2.70;0.82;;;;;;;26.66;26.83;96239.59;4928189;28;20064;-29
2022/04/20 04:59:12;;;;;;;1.00;0.60;;;;;;;26.65;26.84;96226.56;4928681;28;20036;-33
2022/04/20 05:01:37;;;;;;;2.63;0.75;;;;;;;26.65;26.84;96226.56;4929102;28;20497;-32
2022/04/20 05:04:03;;;;;;;1.23;0.70;;;;;;;26.65;26.84;96226.56;4925275;28;20035;-32
2022/04/20 05:06:29;;;;;;;1.27;0.65;;;;;;;26.65;26.84;96226.56;4926021;28;20113;-34
2022/04/20 05:08:54;;;;;;;3.80;0.77;;;;;;;26.65;26.56;96237.09;4926814;28;20515;-33
2022/04/20 05:11:20;;;;;;;2.28;0.75;;;;;;;26.64;26.88;96230.13;4928813;28;20073;-34
2022/04/20 05:13:45;;;;;;;1.65;0.88;;;;;;;26.64;26.80;96236.22;4929027;28;20689;-30
2022/04/20 05:16:12;;;;;;;3.83;0.80;;;;;;;26.64;26.84;96232.75;4925789;28;20093;-31
2022/04/20 05:18:37;;;;;;;1.58;0.63;;;;;;;26.65;26.84;96234.47;4922956;28;20066;-36
2022/04/20 05:21:03;;;;;;;1.80;0.70;;;;;;;26.63;26.81;96231.94;4927823;28;20031;-32
2022/04/20 05:23:28;;;;;;;1.98;0.70;;;;;;;26.63;26.76;96239.81;4922999;28;20430;-31
2022/04/20 05:25:54;;;;;;;1.90;0.60;;;;;;;26.64;26.70;96232.75;4918412;28;20035;-32
2022/04/20 05:28:19;;;;;;;2.35;0.65;;;;;;;26.63;26.82;96237.19;4918483;28;20031;-36
2022/04/20 05:30:44;;;;;;;2.60;0.90;;;;;;;26.64;26.83;96245.88;4922373;28;20038;-34
2022/04/20 05:33:11;;;;;;;1.83;0.90;;;;;;;26.63;26.67;96233.69;4917101;28;20534;-31
2022/04/20 05:35:37;;;;;;;1.88;0.80;;;;;;;26.64;26.81;96240.63;4919237;28;20031;-32
2022/04/20 05:43:30;;;;;;;3.10;1.00;;;;;;;26.63;26.86;96238.94;4920122;28;20070;-33
2022/04/20 05:45:55;;;;;;;2.90;0.90;;;;;;;26.63;26.68;96236.31;4915824;28;20047;-32
2022/04/20 05:48:21;;;;;;;0.85;0.60;;;;;;;26.64;26.86;96235.38;4932127;28;20038;-32
2022/04/20 05:50:46;;;;;;;1.30;0.60;;;;;;;26.62;26.90;96238.13;4911330;28;20059;-35
2022/04/20 05:53:12;;;;;;;2.53;0.70;;;;;;;26.62;26.90;96238.13;4921081;28;20625;-33
2022/04/20 05:55:37;;;;;;;1.42;0.73;;;;;;;26.62;26.72;96243.38;4912767;28;20032;-32
2022/04/20 05:58:03;;;;;;;1.10;0.70;;;;;;;26.61;26.83;96239.91;4917475;28;20039;-33
2022/04/20 06:00:28;;;;;;;0.90;0.57;;;;;;;26.62;26.68;96240.75;4919676;28;20573;-32
2022/04/20 06:02:55;;;;;;;1.05;0.80;;;;;;;26.61;26.68;96237.28;4920314;28;20592;-33
2022/04/20 06:05:21;;;;;;;1.42;0.73;;;;;;;26.61;26.90;96237.28;4920945;28;20031;-32
2022/04/20 06:07:47;;;;;;;0.57;0.57;;;;;;;26.62;26.77;96246.00;4916513;28;20031;-35
2022/04/20 06:10:12;;;;;;;2.13;0.73;;;;;;;26.62;26.80;96243.38;4920099;28;20040;-30
2022/04/20 06:12:38;;;;;;;1.50;0.60;;;;;;;26.62;26.80;96243.38;4914955;28;20138;-32
2022/04/20 06:15:04;;;;;;;1.90;0.50;;;;;;;26.62;26.80;96243.38;4919137;28;20057;-32
2022/04/20 06:17:29;;;;;;;1.48;0.80;;;;;;;26.62;26.80;96243.38;4915048;28;20055;-34
2022/04/20 06:19:55;;;;;;;5.22;1.40;;;;;;;26.64;26.65;96230.13;4913517;28;20035;-33
2022/04/20 06:22:21;;;;;;;2.40;1.00;;;;;;;26.64;26.77;96235.38;4913296;28;20073;-32
2022/04/20 06:24:46;;;;;;;7.07;0.82;;;;;;;26.64;26.77;96235.38;4907767;28;20687;-31
2022/04/20 06:27:11;;;;;;;6.03;1.13;;;;;;;26.64;26.74;96230.13;4918556;28;20103;-34
2022/04/20 06:29:37;;;;;;;2.60;0.90;;;;;;;26.65;26.70;96226.56;4912146;28;20038;-30
2022/04/20 06:32:03;;;;;;;6.20;1.85;;;;;;;26.66;26.80;96229.06;4922821;28;20089;-33
2022/04/20 06:34:29;;;;;;;6.50;2.10;;;;;;;26.67;26.78;96227.28;4916147;28;20031;-32
2022/04/20 06:36:54;;;;;;;5.13;2.35;;;;;;;26.66;26.66;96223.00;4913870;28;20058;-32
2022/04/20 06:39:19;;;;;;;15.68;3.33;;;;;;;26.67;26.78;96219.41;4910857;28;20024;-32
2022/04/20 06:41:45;;;;;;;13.40;3.67;;;;;;;26.67;26.78;96219.41;4908900;28;20031;-32
2022/04/20 06:44:10;;;;;;;18.77;4.43;;;;;;;26.70;26.69;96229.72;4906757;28;20049;-31
2022/04/20 06:46:36;;;;;;;20.38;4.82;;;;;;;26.70;26.69;96224.47;4906773;28;20027;-33
2022/04/20 06:49:03;;;;;;;14.10;3.97;;;;;;;26.71;26.80;96231.41;4908276;28;20050;-34
2022/04/20 06:58:31;;;;;;;15.23;4.60;;;;;;;26.72;26.55;96227.84;4917634;28;20482;-31
2022/04/20 06:59:42;;;;;;;15.60;4.65;;;;;;;26.76;26.68;96229.31;4911802;28;20557;-35
2022/04/20 07:02:08;;;;;;;16.23;4.57;;;;;;;26.76;26.68;96229.31;4913455;28;20043;-32
2022/04/20 07:04:33;;;;;;;15.10;4.40;;;;;;;26.75;26.72;96217.13;4914626;28;20031;-33
2022/04/20 07:06:58;;;;;;;12.50;4.03;;;;;;;26.75;26.72;96217.13;4911346;28;20060;-33
2022/04/20 07:09:24;;;;;;;14.63;4.35;;;;;;;26.79;26.68;96223.88;4912035;28;20093;-32
2022/04/20 07:11:49;;;;;;;10.25;3.72;;;;;;;26.82;26.63;96221.03;4911834;28;20720;-31
2022/04/20 07:14:14;;;;;;;10.18;4.05;;;;;;;26.82;26.77;96223.66;4916400;28;20806;-32
2022/04/20 07:16:40;;;;;;;7.30;3.33;;;;;;;26.84;26.76;96216.50;4916654;28;20039;-34
2022/04/20 07:19:05;;;;;;;7.35;3.03;;;;;;;26.85;26.71;96220.81;4913662;28;20023;-34
2022/04/20 07:21:31;;;;;;;11.07;3.50;;;;;;;26.86;26.78;96225.13;4915421;28;20036;-31
2022/04/20 07:23:56;;;;;;;8.90;3.22;;;;;;;26.88;26.70;96223.25;4918935;28;20414;-33
2022/04/20 07:26:22;;;;;;;9.98;3.20;;;;;;;26.88;26.70;96223.25;4912310;28;20039;-34
2022/04/20 07:28:47;;;;;;;8.10;3.03;;;;;;;26.90;26.66;96214.41;4914402;28;20023;-32
2022/04/20 07:31:13;;;;;;;11.75;3.15;;;;;;;26.92;26.63;96223.06;4911480;28;20042;-36
2022/04/20 07:33:38;;;;;;;8.38;3.20;;;;;;;26.92;26.68;96218.63;4912335;28;20023;-31
2022/04/20 07:36:04;;;;;;;9.23;2.58;;;;;;;26.92;26.68;96218.63;4904689;28;20032;-36
2022/04/20 07:38:29;;;;;;;21.35;3.25;;;;;;;26.95;26.73;96222.84;4906870;28;20063;-31
2022/04/20 07:40:55;;;;;;;17.63;4.53;;;;;;;26.95;26.88;96218.44;4914340;28;20039;-32
2022/04/20 07:43:20;;;;;;;16.98;4.13;;;;;;;26.94;26.80;96216.78;4916131;28;20065;-32
2022/04/20 07:45:46;;;;;;;14.02;4.13;;;;;;;26.96;26.81;96221.94;4916491;28;20090;-30
2022/04/20 07:48:11;;;;;;;16.88;4.38;;;;;;;26.97;26.81;96232.31;4914500;28;20039;-35
2022/04/20 07:50:38;;;;;;;25.20;4.28;;;;;;;26.97;26.81;96232.31;4912992;28;20520;-34
2022/04/20 07:53:05;;;;;;;16.67;4.20;;;;;;;26.98;26.77;96222.66;4910676;28;20050;-36
2022/04/20 07:55:32;;;;;;;13.73;4.03;;;;;;;26.99;26.88;96229.59;4912451;28;20539;-33
2022/04/20 07:57:59;;;;;;;9.15;3.33;;;;;;;27.00;26.67;96236.53;4917802;28;20039;-31
2022/04/20 08:00:24;;;;;;;26.17;4.35;;;;;;;27.00;26.67;96236.53;4916124;28;20302;-36
2022/04/20 08:02:50;;;;;;;20.40;3.35;;;;;;;27.00;26.67;96236.53;4915022;28;20027;-32
2022/04/20 08:05:17;;;;;;;30.27;3.50;;;;;;;27.01;27.04;96227.72;4919245;28;20036;-31
2022/04/20 08:07:44;;;;;;;30.75;3.33;;;;;;;27.03;27.00;96235.50;4914740;28;20744;-31
2022/04/20 08:10:10;;;;;;;18.05;3.58;;;;;;;27.03;27.00;96235.50;4917259;28;20027;-33
2022/04/20 08:12:45;;;;;;;19.88;3.20;;;;;;;27.03;26.47;96231.06;4915415;28;20635;-31
2022/04/20 08:15:10;;;;;;;16.65;3.08;;;;;;;27.02;26.09;96239.91;4911412;28;20046;-30
2022/04/20 08:17:36;;;;;;;17.58;2.78;;;;;;;27.02;26.09;96239.91;4915947;28;20055;-34
2022/04/20 08:20:03;;;;;;;6.00;2.80;;;;;;;26.98;25.90;96233.19;4912970;28;20031;-37
2022/04/20 08:22:29;;;;;;;15.18;3.22;;;;;;;26.98;25.90;96233.19;4911409;28;20485;-32
2022/04/20 08:24:54;;;;;;;5.50;2.38;;;;;;;26.95;25.61;96223.72;4915401;28;20035;-29
2022/04/20 08:27:20;;;;;;;7.10;2.83;;;;;;;26.94;25.46;96226.41;4915105;28;20027;-31
2022/04/20 08:29:47;;;;;;;7.75;2.45;;;;;;;26.94;25.46;96226.41;4917588;28;20143;-34
2022/04/20 08:32:18;;;;;;;27.92;3.10;;;;;;;26.93;25.46;96219.47;4921091;28;20043;-30
2022/04/20 08:34:44;;;;;;;8.10;2.60;;;;;;;26.88;23.57;96222.41;4916169;28;20758;-31
2022/04/20 08:37:10;;;;;;;5.43;2.75;;;;;;;26.76;22.88;96224.06;4915138;28;20050;-31
2022/04/20 08:39:36;;;;;;;10.20;2.85;;;;;;;26.59;21.35;96238.31;4918744;28;20413;-32
2022/04/20 08:42:01;;;;;;;13.38;2.40;;;;;;;26.40;21.48;96238.66;4917886;28;20042;-31
2022/04/20 08:44:27;;;;;;;2.80;1.92;;;;;;;26.25;21.77;96233.44;4918392;28;20106;-31
2022/04/20 08:46:54;;;;;;;7.15;2.25;;;;;;;26.16;21.70;96236.66;4916580;28;20030;-31
2022/04/20 08:49:20;;;;;;;3.42;1.95;;;;;;;26.10;21.83;96230.81;4924547;28;20161;-30
2022/04/20 08:54:29;;;;;;;3.28;1.52;;;;;;;26.06;21.96;96239.00;4911412;28;20085;-32
2022/04/20 08:59:39;;;;;;;2.88;1.33;;;;;;;26.07;22.35;96236.28;4925181;28;20046;-34
2022/04/20 09:02:04;;;;;;;2.85;1.60;;;;;;;26.10;22.26;96243.94;4934364;28;20039;-32
2022/04/20 09:04:29;;;;;;;4.97;1.80;;;;;;;26.13;22.28;96235.06;4921000;28;20458;-29
2022/04/20 09:06:55;;;;;;;5.03;1.38;;;;;;;26.17;22.56;96248.81;4923392;28;20039;-38
2022/04/20 09:09:25;;;;;;;2.58;1.30;;;;;;;26.20;22.49;96232.88;4923184;28;20031;-34
2022/04/20 09:11:50;;;;;;;4.03;1.33;;;;;;;26.23;22.55;96238.78;4911766;28;20721;-31
2022/04/20 09:14:16;;;;;;;1.70;1.20;;;;;;;26.28;22.64;96229.78;4921385;28;20039;-31
2022/04/20 09:16:43;;;;;;;4.50;1.25;;;;;;;26.30;22.61;96233.16;4908218;28;20036;-31
2022/04/20 09:19:08;;;;;;;2.85;1.40;;;;;;;26.33;22.72;96228.56;4914772;28;20031;-31
2022/04/20 09:21:34;;;;;;;2.88;1.20;;;;;;;26.37;22.85;96233.59;4910804;28;20055;-32
2022/04/20 09:24:07;;;;;;;5.88;1.50;;;;;;;26.40;23.83;96228.16;4917137;28;20050;-35
2022/04/20 09:26:32;;;;;;;4.43;1.55;;;;;;;26.44;24.88;96229.66;4912137;28;20067;-32
2022/04/20 09:29:05;;;;;;;9.82;1.65;;;;;;;26.47;25.55;96227.66;4912620;28;20047;-34
2022/04/20 09:32:06;;;;;;;11.63;1.58;;;;;;;26.50;26.38;96229.22;4918892;28;20158;-34
2022/04/20 09:34:35;;;;;;;5.85;1.48;;;;;;;26.54;26.64;96222.00;4912593;28;20046;-31
2022/04/20 09:37:13;;;;;;;9.23;1.92;;;;;;;26.55;26.98;96215.81;4922844;28;20074;-31
2022/04/20 09:39:38;;;;;;;8.60;1.60;;;;;;;26.59;27.45;96223.38;4934498;28;20027;-32
2022/04/20 09:42:05;;;;;;;11.13;2.38;;;;;;;26.61;27.79;96213.63;4924006;28;20035;-32
2022/04/20 09:44:30;;;;;;;13.18;2.42;;;;;;;26.64;28.12;96224.88;4940321;28;20038;-30
2022/04/20 09:50:01;;;;;;;18.42;3.25;;;;;;;26.68;28.85;96221.09;4927712;28;20119;-34
2022/04/20 09:52:38;;;;;;;17.90;3.50;;;;;;;26.68;28.85;96221.09;4930810;28;20023;-32
2022/04/20 09:55:05;;;;;;;14.27;3.10;;;;;;;26.68;28.85;96221.09;4929383;28;20066;-32
2022/04/20 09:57:31;;;;;;;18.98;3.13;;;;;;;26.75;29.15;96206.59;4926331;28;20041;-33
2022/04/20 09:59:58;;;;;;;11.50;2.78;;;;;;;26.77;29.22;96209.97;4931844;28;20668;-32
2022/04/20 10:02:23;;;;;;;15.13;3.22;;;;;;;26.79;29.34;96201.97;4931600;28;20055;-29
2022/04/20 10:04:49;;;;;;;13.35;3.00;;;;;;;26.81;29.53;96208.81;4931736;28;20130;-34
2022/04/20 10:07:15;;;;;;;10.77;3.08;;;;;;;26.82;29.66;96199.16;4924153;28;20031;-33
2022/04/20 10:09:40;;;;;;;12.43;2.90;;;;;;;26.82;29.66;96199.16;4928109;28;20031;-32
2022/04/20 10:12:07;;;;;;;11.68;2.88;;;;;;;26.82;29.66;96199.16;4927853;28;20042;-32
2022/04/20 10:17:21;;;;;;;16.08;3.42;;;;;;;26.82;29.66;96199.16;4931309;28;20693;-30
2022/04/20 10:19:47;;;;;;;9.13;2.95;;;;;;;26.82;29.66;96199.16;4943189;28;20054;-32
2022/04/20 10:22:12;;;;;;;13.23;3.30;;;;;;;26.82;29.66;96199.16;4924215;28;20112;-33
2022/04/20 10:24:38;;;;;;;10.80;2.70;;;;;;;26.95;29.50;96199.19;4925462;28;20146;-34
2022/04/20 10:27:09;;;;;;;9.48;2.85;;;;;;;26.95;29.35;96186.91;4927594;28;20040;-31
2022/04/20 10:29:52;;;;;;;10.20;2.55;;;;;;;26.97;29.32;96189.44;4937753;28;20020;-32
2022/04/20 10:32:25;;;;;;;9.27;2.80;;;;;;;26.97;29.32;96189.44;4931372;28;20040;-31
2022/04/20 10:34:52;;;;;;;8.38;2.55;;;;;;;26.97;29.32;96189.44;4929491;28;20032;-31
2022/04/20 10:37:25;;;;;;;8.77;2.90;;;;;;;27.03;29.48;96183.75;4926142;28;20477;-32
2022/04/20 10:39:52;;;;;;;9.27;2.72;;;;;;;27.05;29.32;96173.13;4927756;28;20031;-34
2022/04/20 10:42:17;;;;;;;8.20;2.75;;;;;;;27.05;29.32;96173.13;4930278;28;20466;-33
2022/04/20 10:44:55;;;;;;;15.52;2.97;;;;;;;27.07;29.32;96174.69;4928372;28;20028;-32
2022/04/20 10:47:42;;;;;;;8.20;2.65;;;;;;;27.08;29.58;96173.75;4931155;28;20031;-32
2022/04/20 10:50:17;;;;;;;8.32;2.53;;;;;;;27.10;29.45;96176.28;4930766;28;20027;-30
2022/04/20 10:52:46;;;;;;;7.45;2.28;;;;;;;27.10;29.45;96176.28;4928758;28;20395;-30
2022/04/20 10:55:12;;;;;;;11.90;2.53;;;;;;;27.10;29.45;96176.28;4931912;28;20036;-35
2022/04/20 10:57:41;;;;;;;7.78;2.60;;;;;;;27.11;29.83;96170.91;4936476;28;20031;-33
2022/04/20 11:00:24;;;;;;;6.35;2.35;;;;;;;27.11;29.92;96165.66;4933058;28;20034;-31
2022/04/20 11:03:00;;;;;;;7.13;2.70;;;;;;;27.11;29.92;96165.66;4933481;28;20035;-30
2022/04/20 11:05:25;;;;;;;8.65;2.35;;;;;;;27.11;29.92;96165.66;4929597;28;20401;-31
2022/04/20 11:08:14;;;;;;;5.93;2.03;;;;;;;27.11;29.92;96165.66;4930536;28;20036;-33
2022/04/20 11:10:43;;;;;;;5.47;2.35;;;;;;;27.11;29.71;96144.63;4930796;28;20138;-31
2022/04/20 11:18:38;;;;;;;8.05;2.10;;;;;;;27.11;29.71;96144.63;4948406;28;20030;-31
2022/04/20 11:21:04;;;;;;;8.88;2.45;;;;;;;27.11;29.71;96144.63;4932612;28;20055;-32
2022/04/20 11:23:55;;;;;;;6.20;2.28;;;;;;;27.11;29.71;96144.63;4932282;28;20088;-33
2022/04/20 11:26:30;;;;;;;5.30;2.40;;;;;;;27.11;29.71;96144.63;4930792;28;20027;-31
2022/04/20 11:29:11;;;;;;;7.32;2.10;;;;;;;27.11;29.71;96144.63;4933255;28;20123;-29
2022/04/20 11:31:38;;;;;;;4.93;2.20;;;;;;;27.11;29.71;96144.63;4932894;28;20040;-31
2022/04/20 11:34:03;;;;;;;7.15;2.40;;;;;;;27.11;29.71;96144.63;4934643;28;20039;-32
2022/04/20 11:36:29;;;;;;;6.43;2.30;;;;;;;27.11;29.71;96144.63;4931278;28;20107;-37
2022/04/20 11:38:54;;;;;;;4.50;2.00;;;;;;;27.11;29.71;96144.63;4931957;28;20043;-32
2022/04/20 11:41:20;;;;;;;4.63;2.00;;;;;;;27.11;29.71;96144.63;4931661;28;20031;-31
2022/04/20 11:43:45;;;;;;;10.18;2.50;;;;;;;27.11;29.71;96144.63;4932918;28;20406;-31
2022/04/20 11:46:11;;;;;;;4.95;1.92;;;;;;;27.11;29.71;96144.63;4933527;28;20035;-32
2022/04/20 11:48:51;;;;;;;5.75;1.80;;;;;;;27.16;29.41;96125.91;4929720;28;20833;-32
2022/04/20 11:51:19;;;;;;;6.50;2.00;;;;;;;27.16;29.41;96125.91;4930376;28;20039;-31
2022/04/20 11:53:46;;;;;;;5.57;2.03;;;;;;;27.18;29.38;96134.50;4929762;28;20027;-32
2022/04/20 11:56:12;;;;;;;3.38;1.60;;;;;;;27.18;29.19;96123.13;4929250;28;20028;-33
2022/04/20 11:58:38;;;;;;;6.10;2.15;;;;;;;27.18;29.19;96123.13;4933878;28;20043;-32
2022/04/20 12:01:07;;;;;;;4.55;1.70;;;;;;;27.18;29.19;96123.13;4932269;28;20032;-32
2022/04/20 12:03:36;;;;;;;3.40;1.35;;;;;;;27.20;29.26;96123.91;4930600;28;20914;-36
2022/04/20 12:06:05;;;;;;;2.80;1.48;;;;;;;27.20;29.25;96124.75;4933309;28;20035;-34